Time;durP1;ratioP1;P1;durP2;ratioP2;P2;SDS_P1;SDS_P2;PMS_P1;PMS_P2;Temp;Humidity;BMP_temperature;BMP_pressure;BME280_temperature;BME280_humidity;BME280_pressure;Samples;Min_cycle;Max_cycle;Signal;HPM_P1;HPM_P2
2021/12/25 00:00:25;;;;;;;13.18;3.10;;;20.70;70.70;;;;;;4935082;28;96154;-54
2021/12/25 00:02:56;;;;;;;11.63;3.88;;;20.70;70.70;;;;;;4933647;28;95895;-57
2021/12/25 00:05:28;;;;;;;9.10;3.30;;;20.70;70.60;;;;;;4937554;28;96272;-53
2021/12/25 00:07:59;;;;;;;8.93;2.90;;;20.70;70.50;;;;;;4935041;28;96186;-55
2021/12/25 00:10:32;;;;;;;6.72;2.80;;;20.80;70.70;;;;;;4932804;28;95782;-54
2021/12/25 00:13:04;;;;;;;10.93;3.13;;;20.70;70.80;;;;;;4939497;28;95818;-55
2021/12/25 00:15:34;;;;;;;13.40;3.13;;;20.80;70.80;;;;;;4925487;28;98085;-54
2021/12/25 00:18:05;;;;;;;13.45;3.58;;;20.80;70.70;;;;;;4931083;28;95988;-55
2021/12/25 00:20:38;;;;;;;8.65;3.00;;;20.80;70.60;;;;;;4940083;28;95670;-54
2021/12/25 00:23:08;;;;;;;6.75;2.78;;;20.80;70.70;;;;;;4937700;28;95799;-52
2021/12/25 00:25:44;;;;;;;9.48;4.13;;;20.80;70.80;;;;;;4948194;28;95941;-54
2021/12/25 00:33:51;;;;;;;6.05;3.40;;;20.80;70.70;;;;;;4942874;28;95687;-52
2021/12/25 00:36:23;;;;;;;6.35;2.90;;;20.90;70.90;;;;;;4944106;28;95955;-51
2021/12/25 00:38:55;;;;;;;7.30;2.95;;;20.80;70.70;;;;;;4938338;28;96060;-53
2021/12/25 00:41:27;;;;;;;5.50;2.67;;;20.90;70.80;;;;;;4943121;28;97208;-54
2021/12/25 00:44:00;;;;;;;7.15;3.00;;;20.90;70.70;;;;;;4944541;28;95702;-54
2021/12/25 00:46:30;;;;;;;6.05;2.33;;;20.90;70.80;;;;;;4941547;28;95417;-55
2021/12/25 00:49:01;;;;;;;5.40;2.20;;;20.90;70.90;;;;;;4935645;28;96421;-55
2021/12/25 00:51:33;;;;;;;11.57;3.05;;;20.90;70.60;;;;;;4940400;28;95448;-53
2021/12/25 00:54:04;;;;;;;8.50;3.20;;;20.90;70.60;;;;;;4937077;28;95451;-55
2021/12/25 00:56:37;;;;;;;6.20;2.60;;;20.90;70.60;;;;;;4940382;28;95962;-56
2021/12/25 00:59:07;;;;;;;6.22;2.75;;;20.90;70.70;;;;;;4942042;28;97769;-51
2021/12/25 01:01:40;;;;;;;7.35;2.42;;;20.90;70.60;;;;;;4942894;28;98409;-53
2021/12/25 01:04:12;;;;;;;6.88;2.25;;;21.00;65.00;;;;;;4948980;28;95816;-53
2021/12/25 01:06:45;;;;;;;5.50;2.22;;;20.90;70.60;;;;;;4948600;28;95691;-53
2021/12/25 01:09:17;;;;;;;4.28;2.42;;;21.00;70.70;;;;;;4937542;28;97732;-53
2021/12/25 01:11:50;;;;;;;4.55;2.35;;;21.00;70.60;;;;;;4947229;28;96050;-52
2021/12/25 01:14:43;;;;;;;5.50;2.42;;;21.00;70.60;;;;;;4941596;28;96515;-52
2021/12/25 01:23:49;;;;;;;6.15;2.28;;;21.00;70.40;;;;;;4945089;28;95722;-54
2021/12/25 01:29:20;;;;;;;5.07;2.08;;;21.10;70.60;;;;;;4944431;28;95711;-55
2021/12/25 01:49:43;;;;;;;5.93;2.25;;;21.10;70.30;;;;;;4960761;28;95590;-55
2021/12/25 01:52:16;;;;;;;5.32;1.95;;;21.10;70.30;;;;;;4964587;28;95448;-53
2021/12/25 01:54:47;;;;;;;2.80;1.90;;;21.20;70.20;;;;;;4953619;28;96817;-55
2021/12/25 01:57:17;;;;;;;6.68;1.98;;;21.10;70.30;;;;;;4961244;28;97584;-54
2021/12/25 01:59:48;;;;;;;1.65;1.52;;;21.20;70.20;;;;;;4957625;28;95969;-55
2021/12/25 02:02:19;;;;;;;14.45;2.35;;;21.20;70.30;;;;;;4982419;28;100250;-55
2021/12/25 02:04:50;;;;;;;;;;;21.20;70.30;;;;;;4960629;28;96035;-55
2021/12/25 02:07:23;;;;;;;3.72;2.30;;;21.20;70.30;;;;;;4967624;28;97507;-56
2021/12/25 02:09:54;;;;;;;9.55;2.08;;;21.20;70.10;;;;;;4963772;28;97421;-53
2021/12/25 02:12:26;;;;;;;1.88;1.30;;;21.20;70.20;;;;;;4966528;28;96298;-54
2021/12/25 02:15:03;;;;;;;3.08;1.50;;;21.20;70.10;;;;;;4956216;28;96296;-51
2021/12/25 02:23:27;;;;;;;3.85;1.60;;;21.30;70.00;;;;;;4965279;28;95306;-50
2021/12/25 02:25:58;;;;;;;4.32;1.45;;;21.30;70.00;;;;;;4966850;28;96608;-54
2021/12/25 02:28:29;;;;;;;3.17;1.38;;;21.30;70.00;;;;;;4955515;28;96982;-54
2021/12/25 02:31:05;;;;;;;1.83;1.23;;;21.30;70.00;;;;;;4950346;28;95642;-56
2021/12/25 02:33:39;;;;;;;2.17;1.10;;;21.40;69.80;;;;;;4965690;28;96088;-51
2021/12/25 02:36:13;;;;;;;4.15;1.88;;;21.30;69.80;;;;;;4960051;28;97911;-55
2021/12/25 02:38:45;;;;;;;4.85;1.30;;;21.40;70.30;;;;;;4964640;28;97933;-53
2021/12/25 02:41:17;;;;;;;2.35;1.33;;;21.40;69.90;;;;;;4989351;28;95346;-55
2021/12/25 02:43:47;;;;;;;;;;;21.40;69.80;;;;;;4993987;28;95470;-55
2021/12/25 02:46:39;;;;;;;2.78;1.20;;;21.40;69.70;;;;;;4948066;28;95957;-53
2021/12/25 02:49:13;;;;;;;8.35;2.13;;;21.50;64.00;;;;;;4962059;28;96061;-54
2021/12/25 02:51:48;;;;;;;4.05;1.75;;;21.50;67.40;;;;;;4956277;28;95671;-51
2021/12/25 02:54:19;;;;;;;1.85;1.23;;;21.50;69.70;;;;;;4966108;28;95533;-53
2021/12/25 02:56:49;;;;;;;2.72;1.80;;;21.50;69.70;;;;;;4960879;28;96618;-49
2021/12/25 02:59:19;;;;;;;1.47;1.10;;;21.50;69.60;;;;;;4994922;28;97234;-53
2021/12/25 03:02:13;;;;;;;2.30;1.02;;;21.50;69.60;;;;;;4956436;28;95796;-51
2021/12/25 03:04:50;;;;;;;2.10;1.30;;;21.50;69.60;;;;;;4952315;28;96406;-53
2021/12/25 03:07:22;;;;;;;3.55;1.40;;;21.50;69.60;;;;;;4957155;28;96106;-54
2021/12/25 03:09:56;;;;;;;3.10;1.75;;;21.60;69.60;;;;;;4961631;28;95648;-54
2021/12/25 03:12:36;;;;;;;3.08;1.30;;;21.50;69.50;;;;;;4962666;28;97665;-57
2021/12/25 03:15:15;;;;;;;3.22;1.27;;;21.60;69.60;;;;;;4957275;28;95725;-55
2021/12/25 03:17:46;;;;;;;3.83;1.20;;;21.60;69.30;;;;;;4951841;28;99811;-51
2021/12/25 03:20:18;;;;;;;1.15;1.00;;;21.60;69.30;;;;;;4962727;28;95827;-53
2021/12/25 03:22:50;;;;;;;3.63;1.70;;;21.70;69.20;;;;;;4959387;28;95763;-55
2021/12/25 03:25:20;;;;;;;1.98;1.30;;;21.70;69.20;;;;;;4966098;28;97569;-57
2021/12/25 03:27:51;;;;;;;3.53;1.23;;;21.70;69.30;;;;;;4991418;28;98142;-54
2021/12/25 03:30:24;;;;;;;2.30;1.00;;;21.70;69.20;;;;;;4957280;28;97812;-52
2021/12/25 03:32:56;;;;;;;2.63;1.13;;;21.70;69.20;;;;;;4970787;28;95800;-54
2021/12/25 03:35:26;;;;;;;4.50;1.92;;;21.70;69.20;;;;;;4969432;28;95947;-52
2021/12/25 03:37:56;;;;;;;4.07;1.48;;;21.70;69.20;;;;;;4962517;28;96092;-56
2021/12/25 03:40:26;;;;;;;4.22;1.80;;;21.70;69.10;;;;;;4962118;28;95960;-56
2021/12/25 03:42:58;;;;;;;;;;;21.80;69.20;;;;;;4966506;28;95796;-56
2021/12/25 03:45:31;;;;;;;;;;;21.90;69.10;;;;;;4950687;28;95684;-53
2021/12/25 03:48:27;;;;;;;1.38;1.00;;;21.80;69.20;;;;;;4947981;28;98548;-55
2021/12/25 03:59:14;;;;;;;1.27;1.00;;;21.90;69.00;;;;;;4943171;28;97732;-51
2021/12/25 04:01:52;;;;;;;3.53;1.20;;;22.00;69.00;;;;;;4929790;28;97561;-54
2021/12/25 04:04:35;;;;;;;3.22;1.10;;;22.00;68.90;;;;;;4947089;28;95948;-51
2021/12/25 04:07:13;;;;;;;2.25;1.30;;;22.00;68.80;;;;;;4945827;28;95545;-51
2021/12/25 04:09:46;;;;;;;4.47;1.65;;;22.10;68.80;;;;;;4941120;28;95861;-53
2021/12/25 04:12:18;;;;;;;3.60;1.10;;;22.00;68.80;;;;;;4946945;28;95837;-57
2021/12/25 04:14:50;;;;;;;2.38;1.67;;;22.10;68.80;;;;;;4935278;28;95504;-53
2021/12/25 04:17:21;;;;;;;3.10;1.20;;;22.10;68.70;;;;;;4948787;28;98232;-55
2021/12/25 04:19:52;;;;;;;3.22;1.42;;;22.10;68.70;;;;;;4958132;28;95855;-52
2021/12/25 04:22:31;;;;;;;1.38;1.20;;;22.10;68.60;;;;;;4966382;28;97284;-55
2021/12/25 04:25:02;;;;;;;2.03;0.93;;;22.20;68.60;;;;;;4954651;28;95761;-55
2021/12/25 04:27:33;;;;;;;2.58;1.52;;;22.20;68.50;;;;;;4966330;28;95433;-54
2021/12/25 04:30:22;;;;;;;1.60;1.17;;;22.20;68.40;;;;;;4968212;28;98530;-53
2021/12/25 05:04:12;;;;;;;2.53;1.00;;;22.40;67.90;;;;;;4930721;28;95679;-54
2021/12/25 05:07:25;;;;;;;1.38;0.80;;;22.50;62.40;;;;;;4942478;28;96531;-55
2021/12/25 05:09:59;;;;;;;1.60;1.05;;;22.50;67.70;;;;;;4950555;28;96199;-56
2021/12/25 05:12:30;;;;;;;1.38;1.08;;;22.50;67.80;;;;;;4944931;28;96053;-54
2021/12/25 05:15:01;;;;;;;1.30;1.00;;;22.50;67.70;;;;;;4936574;28;95946;-54
2021/12/25 05:17:33;;;;;;;2.28;1.10;;;22.50;67.70;;;;;;4922356;28;96004;-55
2021/12/25 05:20:05;;;;;;;;;;;22.60;67.70;;;;;;4944050;28;95338;-53
2021/12/25 05:22:36;;;;;;;1.67;0.82;;;22.50;67.50;;;;;;4949228;28;95824;-54
2021/12/25 05:25:06;;;;;;;1.40;0.90;;;22.60;67.70;;;;;;4949010;28;98470;-53
2021/12/25 05:27:46;;;;;;;1.30;0.98;;;22.60;67.50;;;;;;4945606;28;98215;-53
2021/12/25 05:30:18;;;;;;;1.48;0.98;;;22.60;68.20;;;;;;4939020;28;95290;-55
2021/12/25 05:33:22;;;;;;;1.90;1.50;;;22.60;67.60;;;;;;4938935;28;95937;-52
2021/12/25 05:36:11;;;;;;;2.35;0.95;;;22.60;67.60;;;;;;4931290;28;95764;-57
2021/12/25 05:39:01;;;;;;;1.30;0.97;;;22.70;67.60;;;;;;4938074;28;95745;-56
2021/12/25 05:41:35;;;;;;;2.25;1.13;;;22.70;67.50;;;;;;4948163;28;95882;-55
2021/12/25 05:44:12;;;;;;;1.17;0.98;;;22.70;67.40;;;;;;4946126;28;95769;-52
2021/12/25 05:47:09;;;;;;;3.25;1.17;;;22.70;67.50;;;;;;4929710;28;96743;-56
2021/12/25 05:49:45;;;;;;;2.00;1.20;;;22.80;67.50;;;;;;4947707;28;95866;-55
2021/12/25 05:52:25;;;;;;;1.75;1.35;;;22.80;67.40;;;;;;4933424;28;95315;-55
2021/12/25 05:55:19;;;;;;;4.10;1.33;;;22.80;67.40;;;;;;4946110;28;95811;-54
2021/12/25 05:58:18;;;;;;;2.53;1.30;;;22.80;67.20;;;;;;4929397;28;95837;-56
2021/12/25 06:01:06;;;;;;;2.85;1.40;;;22.90;67.20;;;;;;4932399;28;95796;-54
2021/12/25 06:03:37;;;;;;;2.35;1.40;;;22.90;67.10;;;;;;4945744;28;95689;-52
2021/12/25 06:06:09;;;;;;;4.55;1.25;;;22.90;67.10;;;;;;4957852;28;95959;-56
2021/12/25 06:08:41;;;;;;;1.88;1.10;;;22.90;67.10;;;;;;4917828;28;96215;-54
2021/12/25 06:11:12;;;;;;;4.10;1.33;;;22.90;67.00;;;;;;4933999;28;95860;-55
2021/12/25 06:13:55;;;;;;;2.15;1.48;;;22.90;67.00;;;;;;4938915;28;95524;-55
2021/12/25 06:16:38;;;;;;;1.98;1.25;;;23.00;66.90;;;;;;4921926;28;96108;-52
2021/12/25 06:19:17;;;;;;;1.70;1.27;;;23.00;61.40;;;;;;4947093;28;98578;-55
2021/12/25 06:22:10;;;;;;;2.10;1.30;;;23.10;66.90;;;;;;4937954;28;95893;-53
2021/12/25 06:25:00;;;;;;;3.28;1.25;;;23.10;66.90;;;;;;4919553;28;95965;-56
2021/12/25 06:27:49;;;;;;;2.65;1.10;;;23.10;66.90;;;;;;4931259;28;97933;-54
2021/12/25 06:30:44;;;;;;;2.63;1.20;;;23.10;66.90;;;;;;4942308;28;96025;-52
2021/12/25 06:33:21;;;;;;;1.77;1.20;;;23.10;66.80;;;;;;4944458;28;96574;-52
2021/12/25 06:36:14;;;;;;;2.65;1.00;;;23.10;66.70;;;;;;4947210;28;96394;-50
2021/12/25 06:38:59;;;;;;;3.92;1.10;;;23.20;66.80;;;;;;4940138;28;96078;-56
2021/12/25 06:41:57;;;;;;;2.25;1.20;;;23.20;66.60;;;;;;4943313;28;98279;-54
2021/12/25 06:44:29;;;;;;;2.90;1.42;;;23.20;66.60;;;;;;4943388;28;97541;-54
2021/12/25 06:47:00;;;;;;;;;;;23.20;66.70;;;;;;4957966;28;95615;-52
2021/12/25 06:49:31;;;;;;;1.75;1.10;;;23.20;66.50;;;;;;4968549;28;96070;-53
2021/12/25 06:52:26;;;;;;;3.05;1.30;;;23.20;66.60;;;;;;4963171;28;96015;-56
2021/12/25 06:55:27;;;;;;;1.15;1.08;;;23.20;66.50;;;;;;4954542;28;96343;-55
2021/12/25 06:58:15;;;;;;;2.47;1.05;;;23.20;66.40;;;;;;4965693;28;95959;-56
2021/12/25 07:00:46;;;;;;;4.00;1.20;;;23.20;66.40;;;;;;4951183;28;96019;-56
2021/12/25 07:03:18;;;;;;;3.78;1.48;;;23.20;66.30;;;;;;4940985;28;95627;-53
2021/12/25 07:06:10;;;;;;;2.00;1.23;;;23.30;66.30;;;;;;4939801;28;95255;-55
2021/12/25 07:09:09;;;;;;;1.63;1.13;;;23.20;66.20;;;;;;4955389;28;95805;-57
2021/12/25 07:12:05;;;;;;;2.65;1.50;;;23.20;66.30;;;;;;4933847;28;96242;-51
2021/12/25 07:14:49;;;;;;;2.25;1.42;;;23.30;66.30;;;;;;4939876;28;96071;-55
2021/12/25 07:17:39;;;;;;;1.85;1.10;;;23.30;66.30;;;;;;4927838;28;95453;-52
2021/12/25 07:20:36;;;;;;;1.65;1.40;;;23.30;66.30;;;;;;4946122;28;95298;-57
2021/12/25 07:23:17;;;;;;;2.67;1.60;;;23.30;66.30;;;;;;4944631;28;95493;-53
2021/12/25 07:26:01;;;;;;;2.25;1.50;;;23.30;66.40;;;;;;4929407;28;96339;-55
2021/12/25 07:29:07;;;;;;;5.90;1.70;;;23.30;66.40;;;;;;4964633;28;95436;-54
2021/12/25 07:31:39;;;;;;;1.45;1.13;;;23.40;66.40;;;;;;4944175;28;98549;-53
2021/12/25 07:34:09;;;;;;;3.08;1.23;;;23.40;60.80;;;;;;4962378;28;95725;-54
2021/12/25 07:36:39;;;;;;;1.48;1.38;;;23.40;60.80;;;;;;4959731;28;96725;-54
2021/12/25 07:39:09;;;;;;;2.40;1.30;;;23.40;66.30;;;;;;4958091;28;95546;-53
2021/12/25 07:41:42;;;;;;;3.17;1.63;;;23.40;66.30;;;;;;4962277;28;95246;-52
2021/12/25 07:44:26;;;;;;;5.90;1.83;;;23.40;66.30;;;;;;4965345;28;95348;-56
2021/12/25 07:47:00;;;;;;;3.17;1.58;;;23.40;66.20;;;;;;4952728;28;98445;-56
2021/12/25 07:49:32;;;;;;;2.70;1.48;;;23.40;66.20;;;;;;4936389;28;95994;-55
2021/12/25 07:52:04;;;;;;;2.00;1.48;;;23.30;66.00;;;;;;4937943;28;95921;-54
2021/12/25 07:54:36;;;;;;;5.85;1.83;;;23.30;66.00;;;;;;4944327;28;95633;-55
2021/12/25 07:57:06;;;;;;;2.22;1.17;;;23.30;65.90;;;;;;4946734;28;98369;-55
2021/12/25 07:59:36;;;;;;;6.78;1.70;;;23.30;65.90;;;;;;4936026;28;95638;-55
2021/12/25 08:02:07;;;;;;;4.53;1.70;;;23.30;65.80;;;;;;4931328;28;95788;-53
2021/12/25 08:04:39;;;;;;;4.63;1.70;;;23.30;65.80;;;;;;4938870;28;95229;-53
2021/12/25 08:07:12;;;;;;;4.88;1.75;;;23.30;65.80;;;;;;4943963;28;96646;-53
2021/12/25 08:09:43;;;;;;;2.65;1.23;;;23.20;65.70;;;;;;4940611;28;95968;-56
2021/12/25 08:12:15;;;;;;;4.80;1.60;;;23.20;65.70;;;;;;4937269;28;95798;-57
2021/12/25 08:14:46;;;;;;;2.78;1.25;;;23.20;65.70;;;;;;4932753;28;96046;-54
2021/12/25 08:17:17;;;;;;;4.97;1.45;;;23.20;65.50;;;;;;4930444;28;96474;-54
2021/12/25 08:20:09;;;;;;;4.80;1.60;;;23.20;65.60;;;;;;4936444;28;95688;-52
2021/12/25 08:22:58;;;;;;;;;;;23.20;65.50;;;;;;4940456;28;95903;-52
2021/12/25 08:25:46;;;;;;;3.58;1.30;;;23.10;65.50;;;;;;4933599;28;95466;-55
2021/12/25 08:28:52;;;;;;;3.15;1.52;;;23.10;65.50;;;;;;4951228;28;96132;-54
2021/12/25 08:31:42;;;;;;;5.45;1.60;;;23.10;65.50;;;;;;4927902;28;95297;-51
2021/12/25 08:34:32;;;;;;;10.05;2.72;;;23.10;65.50;;;;;;4947754;28;95739;-50
2021/12/25 08:37:08;;;;;;;8.20;2.65;;;23.10;65.40;;;;;;4949563;28;95977;-57
2021/12/25 08:39:38;;;;;;;7.73;3.17;;;23.00;65.30;;;;;;4935739;28;95934;-54
2021/12/25 08:42:10;;;;;;;6.45;3.03;;;23.00;65.30;;;;;;4948163;28;96109;-55
2021/12/25 08:45:04;;;;;;;5.88;2.97;;;23.00;65.30;;;;;;4940622;28;95788;-53
2021/12/25 08:47:36;;;;;;;7.22;3.03;;;23.00;65.40;;;;;;4928388;28;96089;-51
2021/12/25 08:50:10;;;;;;;3.47;2.25;;;22.90;65.30;;;;;;4943924;28;96053;-53
2021/12/25 08:52:42;;;;;;;4.35;2.58;;;22.90;65.30;;;;;;4938802;28;98847;-55
2021/12/25 08:55:13;;;;;;;4.45;2.00;;;22.90;65.20;;;;;;4936933;28;96147;-51
2021/12/25 08:57:43;;;;;;;6.50;2.72;;;22.90;65.20;;;;;;4944116;28;95799;-51
2021/12/25 09:00:13;;;;;;;3.45;1.80;;;22.90;65.20;;;;;;4944558;28;96090;-54
2021/12/25 09:02:44;;;;;;;4.15;2.47;;;22.90;65.20;;;;;;4941526;28;96069;-54
2021/12/25 09:05:16;;;;;;;5.00;1.85;;;22.80;65.20;;;;;;4948629;28;95651;-52
2021/12/25 09:07:48;;;;;;;5.35;2.47;;;22.90;59.60;;;;;;4950335;28;95328;-54
2021/12/25 09:10:22;;;;;;;3.67;1.95;;;22.80;65.00;;;;;;4946601;28;96415;-54
2021/12/25 09:12:57;;;;;;;3.65;2.10;;;22.80;65.10;;;;;;4948141;28;95884;-55
2021/12/25 09:15:28;;;;;;;5.32;1.95;;;22.80;65.10;;;;;;4930563;28;96165;-52
2021/12/25 09:17:59;;;;;;;5.18;1.98;;;22.70;65.00;;;;;;4942422;28;95838;-52
2021/12/25 09:20:31;;;;;;;3.42;1.40;;;22.70;65.00;;;;;;4937776;28;96401;-54
2021/12/25 09:23:03;;;;;;;5.10;2.17;;;22.60;64.90;;;;;;4937520;28;96048;-56
2021/12/25 09:25:33;;;;;;;8.88;2.22;;;22.60;64.90;;;;;;4938341;28;95778;-54
2021/12/25 09:28:03;;;;;;;5.75;1.70;;;22.60;64.90;;;;;;4931916;28;95654;-50
2021/12/25 09:30:36;;;;;;;4.90;1.58;;;22.60;64.90;;;;;;4927676;28;96092;-51
2021/12/25 09:33:07;;;;;;;4.38;1.65;;;22.60;64.90;;;;;;4935975;28;97874;-54
2021/12/25 09:35:38;;;;;;;5.47;2.10;;;22.60;64.90;;;;;;4940927;28;98034;-53
2021/12/25 09:38:09;;;;;;;3.00;1.65;;;22.50;65.00;;;;;;4947905;28;95610;-54
2021/12/25 09:40:40;;;;;;;2.97;1.70;;;22.50;65.00;;;;;;4944206;28;96070;-56
2021/12/25 09:43:13;;;;;;;7.28;2.35;;;22.50;64.90;;;;;;4938268;28;95959;-53
2021/12/25 09:45:45;;;;;;;3.83;2.05;;;22.50;64.90;;;;;;4924410;28;96032;-54
2021/12/25 09:48:16;;;;;;;4.80;2.17;;;22.50;64.90;;;;;;4931547;28;95922;-53
2021/12/25 09:50:47;;;;;;;2.87;1.43;;;22.40;64.80;;;;;;4941131;28;96122;-53
2021/12/25 09:53:21;;;;;;;4.28;1.80;;;22.40;64.90;;;;;;4937838;28;96001;-54
2021/12/25 09:55:53;;;;;;;7.40;2.35;;;22.30;64.90;;;;;;4938885;28;95836;-55
2021/12/25 09:58:23;;;;;;;;;;;22.40;65.00;;;;;;4935924;28;95543;-54
2021/12/25 10:00:53;;;;;;;3.28;1.92;;;22.30;64.80;;;;;;4934996;28;96708;-52
2021/12/25 10:03:44;;;;;;;5.32;2.00;;;22.30;64.90;;;;;;4953603;28;96327;-53
2021/12/25 10:06:40;;;;;;;3.90;1.85;;;22.30;65.10;;;;;;4954629;28;95537;-55
2021/12/25 10:09:21;;;;;;;2.00;1.58;;;22.30;65.00;;;;;;4956176;28;95525;-52
2021/12/25 10:12:12;;;;;;;3.53;1.42;;;22.20;65.00;;;;;;4954235;28;96104;-53
2021/12/25 10:14:52;;;;;;;4.60;2.00;;;22.20;64.80;;;;;;4950994;28;95834;-54
2021/12/25 10:17:27;;;;;;;4.25;1.77;;;22.20;64.80;;;;;;4945220;28;95850;-53
2021/12/25 10:20:01;;;;;;;3.38;1.60;;;22.10;64.80;;;;;;4951381;28;95695;-54
2021/12/25 10:22:32;;;;;;;3.83;1.70;;;22.10;64.80;;;;;;4956943;28;96122;-56
2021/12/25 10:25:15;;;;;;;5.85;1.50;;;22.10;64.80;;;;;;4953150;28;95513;-56
2021/12/25 10:27:55;;;;;;;7.30;1.77;;;22.10;65.00;;;;;;4959678;28;96002;-52
2021/12/25 10:30:31;;;;;;;4.32;1.45;;;22.00;64.80;;;;;;4946765;28;95671;-53
2021/12/25 10:33:02;;;;;;;8.32;1.35;;;22.00;64.80;;;;;;4953072;28;102464;-55
2021/12/25 10:35:37;;;;;;;6.68;1.40;;;22.00;65.00;;;;;;4963026;28;96117;-53
2021/12/25 10:38:12;;;;;;;3.00;1.23;;;22.00;65.30;;;;;;4966928;28;95741;-54
2021/12/25 10:40:43;;;;;;;4.63;1.70;;;22.00;65.20;;;;;;4968913;28;95327;-54
2021/12/25 10:43:23;;;;;;;2.80;1.50;;;22.00;65.50;;;;;;4967939;28;96081;-57
2021/12/25 10:46:04;;;;;;;4.47;2.00;;;21.90;66.30;;;;;;4948779;28;96236;-54
2021/12/25 10:48:34;;;;;;;4.25;1.70;;;21.90;65.80;;;;;;4961029;28;95937;-53
2021/12/25 10:51:06;;;;;;;4.32;1.50;;;21.90;65.80;;;;;;4959379;28;95637;-55
2021/12/25 10:53:42;;;;;;;9.85;1.70;;;21.90;65.80;;;;;;4950840;28;96273;-54
2021/12/25 10:56:15;;;;;;;5.00;2.00;;;21.80;65.80;;;;;;4957357;28;95459;-54
2021/12/25 10:58:46;;;;;;;6.35;1.83;;;21.90;66.00;;;;;;4955910;28;95859;-52
2021/12/25 11:01:17;;;;;;;3.60;1.87;;;21.80;65.80;;;;;;4950144;28;95873;-55
2021/12/25 11:03:50;;;;;;;6.72;1.60;;;21.80;66.60;;;;;;4942373;28;96399;-51
2021/12/25 11:06:22;;;;;;;2.65;1.20;;;21.80;66.10;;;;;;4940194;28;96008;-54
2021/12/25 11:08:55;;;;;;;3.65;1.17;;;21.70;66.00;;;;;;4939755;28;95317;-55
2021/12/25 11:11:26;;;;;;;3.20;1.60;;;21.70;66.10;;;;;;4940897;28;96069;-57
2021/12/25 11:14:02;;;;;;;2.42;1.30;;;21.70;66.40;;;;;;4944637;28;97001;-50
2021/12/25 11:16:38;;;;;;;6.45;1.50;;;21.70;66.40;;;;;;4935188;28;98441;-52
2021/12/25 11:19:16;;;;;;;2.80;1.20;;;21.70;60.50;;;;;;4952476;28;95839;-56
2021/12/25 11:21:48;;;;;;;5.88;1.63;;;21.60;66.00;;;;;;4937559;28;95820;-53
2021/12/25 11:24:24;;;;;;;3.72;1.20;;;21.60;65.90;;;;;;4945631;28;96416;-53
2021/12/25 11:26:57;;;;;;;5.10;1.98;;;21.60;66.00;;;;;;4933604;28;95504;-55
2021/12/25 11:29:32;;;;;;;2.17;1.25;;;21.60;65.90;;;;;;4937132;28;95473;-56
2021/12/25 11:32:06;;;;;;;2.08;1.10;;;21.50;65.80;;;;;;4931295;28;95670;-51
2021/12/25 11:34:36;;;;;;;2.92;1.30;;;21.50;66.10;;;;;;4941692;28;96074;-55
2021/12/25 11:37:06;;;;;;;7.05;1.60;;;21.50;60.50;;;;;;4936580;28;95829;-56
2021/12/25 11:39:38;;;;;;;3.88;1.77;;;21.50;66.20;;;;;;4943935;28;96506;-52
2021/12/25 11:42:11;;;;;;;5.47;2.20;;;21.50;66.30;;;;;;4937442;28;95922;-51
2021/12/25 11:44:56;;;;;;;3.13;1.60;;;21.40;66.30;;;;;;4937940;28;96040;-52
2021/12/25 11:47:34;;;;;;;2.42;1.23;;;21.40;66.30;;;;;;4958362;28;95895;-51
2021/12/25 11:50:25;;;;;;;5.88;2.15;;;21.40;66.30;;;;;;4970437;28;95945;-56
2021/12/25 11:58:49;;;;;;;2.90;1.63;;;21.40;66.60;;;;;;4965494;28;95705;-53
2021/12/25 12:01:41;;;;;;;5.15;1.67;;;21.40;66.60;;;;;;4956596;28;95912;-54
2021/12/25 12:04:16;;;;;;;4.80;1.52;;;21.40;66.90;;;;;;4966608;28;95590;-55
2021/12/25 12:06:47;;;;;;;4.53;1.40;;;21.30;66.80;;;;;;4962407;28;96763;-56
2021/12/25 12:09:50;;;;;;;4.20;1.63;;;21.30;66.90;;;;;;4969561;28;95636;-55
2021/12/25 12:12:42;;;;;;;6.70;1.88;;;21.30;67.00;;;;;;4959019;28;96869;-54
2021/12/25 12:15:48;;;;;;;4.45;1.67;;;21.30;67.10;;;;;;4944908;28;95925;-51
2021/12/25 12:18:40;;;;;;;10.75;2.20;;;21.40;66.70;;;;;;4941254;28;102639;-56
2021/12/25 12:21:23;;;;;;;6.20;2.35;;;21.50;66.30;;;;;;4941480;28;95817;-57
2021/12/25 12:26:47;;;;;;;7.68;2.50;;;21.60;65.80;;;;;;4942264;28;95855;-54
2021/12/25 12:29:40;;;;;;;3.40;1.58;;;21.70;65.60;;;;;;4947525;28;98032;-59
2021/12/25 12:32:23;;;;;;;9.30;2.20;;;21.70;65.40;;;;;;4932762;28;98815;-55
2021/12/25 12:34:53;;;;;;;7.60;1.98;;;21.70;65.30;;;;;;4941239;28;95849;-55
2021/12/25 12:37:24;;;;;;;5.20;1.42;;;21.70;65.10;;;;;;4945702;28;95885;-52
2021/12/25 12:39:57;;;;;;;;;;;21.70;64.90;;;;;;4959453;28;96101;-54
2021/12/25 12:42:47;;;;;;;8.85;2.67;;;21.80;64.80;;;;;;4943879;28;96756;-50
2021/12/25 12:45:22;;;;;;;5.78;2.20;;;21.80;64.70;;;;;;4933877;28;96060;-54
2021/12/25 12:48:10;;;;;;;6.32;2.00;;;21.80;64.50;;;;;;4942274;28;97644;-53
2021/12/25 12:50:43;;;;;;;9.23;2.65;;;21.80;64.30;;;;;;4938137;28;96653;-52
2021/12/25 12:53:15;;;;;;;8.23;2.45;;;21.80;64.20;;;;;;4942358;28;95858;-57
2021/12/25 12:55:51;;;;;;;6.18;2.58;;;21.80;64.10;;;;;;4943324;28;95328;-57
2021/12/25 12:58:27;;;;;;;9.82;2.20;;;21.80;64.10;;;;;;4943349;28;96698;-54
2021/12/25 13:01:09;;;;;;;8.68;2.78;;;21.80;64.20;;;;;;4939105;28;96863;-54
2021/12/25 13:03:41;;;;;;;9.82;2.65;;;21.80;64.40;;;;;;4960581;28;95753;-56
2021/12/25 13:06:15;;;;;;;12.57;3.30;;;21.80;64.20;;;;;;4959900;28;95844;-57
2021/12/25 13:08:48;;;;;;;8.32;2.45;;;21.80;64.20;;;;;;4961573;28;96135;-55
2021/12/25 13:13:56;;;;;;;8.65;2.40;;;21.80;64.10;;;;;;4958066;28;97387;-58
2021/12/25 13:16:39;;;;;;;7.72;2.20;;;21.70;64.10;;;;;;4937669;28;95370;-56
2021/12/25 13:19:11;;;;;;;5.53;2.22;;;21.70;64.10;;;;;;4941599;28;96501;-55
2021/12/25 13:21:42;;;;;;;9.75;3.03;;;21.70;59.00;;;;;;4940318;28;97183;-59
2021/12/25 13:24:16;;;;;;;11.27;3.40;;;21.70;64.20;;;;;;4934372;28;95893;-53
2021/12/25 13:26:50;;;;;;;12.70;3.25;;;21.60;64.30;;;;;;4942704;28;95275;-56
2021/12/25 13:29:23;;;;;;;9.18;2.72;;;21.60;64.40;;;;;;4944226;28;96626;-55
2021/12/25 13:31:56;;;;;;;8.27;2.95;;;21.60;64.50;;;;;;4936504;28;96015;-58
2021/12/25 13:34:28;;;;;;;7.97;3.60;;;21.50;64.40;;;;;;4943096;28;96368;-58
2021/12/25 13:36:59;;;;;;;12.32;3.40;;;21.50;64.40;;;;;;4942968;28;96571;-57
2021/12/25 13:39:32;;;;;;;11.43;3.37;;;21.50;64.40;;;;;;4939844;28;95915;-58
2021/12/25 13:42:13;;;;;;;9.82;3.22;;;21.40;64.40;;;;;;4953574;28;96792;-58
2021/12/25 13:44:48;;;;;;;8.77;2.72;;;21.40;64.40;;;;;;4940908;28;96428;-56
2021/12/25 13:47:28;;;;;;;9.57;3.53;;;21.40;64.40;;;;;;4935101;28;95759;-56
2021/12/25 13:50:04;;;;;;;7.85;2.88;;;21.40;64.40;;;;;;4943215;28;96495;-56
2021/12/25 13:52:43;;;;;;;8.20;3.17;;;21.50;64.80;;;;;;4943154;28;95875;-54
2021/12/25 13:55:24;;;;;;;7.65;2.58;;;21.60;64.80;;;;;;4940769;28;95440;-54
2021/12/25 13:58:09;;;;;;;6.00;2.00;;;21.70;64.90;;;;;;4937680;28;95846;-55
2021/12/25 14:00:46;;;;;;;4.57;2.10;;;21.90;64.80;;;;;;4933686;28;97311;-59
2021/12/25 14:03:23;;;;;;;5.78;2.15;;;22.00;65.60;;;;;;4940541;28;96766;-57
2021/12/25 14:05:55;;;;;;;7.10;2.40;;;22.10;65.00;;;;;;4943363;28;95911;-54
2021/12/25 14:08:28;;;;;;;3.67;1.67;;;22.20;64.90;;;;;;4942394;28;95370;-53
2021/12/25 14:11:02;;;;;;;6.43;2.15;;;22.20;64.80;;;;;;4942836;28;96149;-56
2021/12/25 14:13:40;;;;;;;4.18;1.73;;;22.30;64.90;;;;;;4935932;28;95996;-56
2021/12/25 14:16:14;;;;;;;5.32;2.10;;;22.40;64.90;;;;;;4921636;28;95971;-59
2021/12/25 14:18:46;;;;;;;4.72;1.58;;;22.60;64.60;;;;;;4942345;28;95815;-59
2021/12/25 14:21:22;;;;;;;3.40;1.70;;;22.70;64.50;;;;;;4943522;28;95256;-53
2021/12/25 14:24:08;;;;;;;3.45;1.38;;;22.80;64.00;;;;;;4942117;28;96677;-57
2021/12/25 14:26:46;;;;;;;3.05;1.52;;;22.90;63.80;;;;;;4942424;28;95564;-56
2021/12/25 14:29:26;;;;;;;3.22;1.48;;;23.20;63.60;;;;;;4938842;28;95824;-58
2021/12/25 14:31:58;;;;;;;4.00;1.92;;;23.30;63.60;;;;;;4931276;28;95929;-57
2021/12/25 14:34:31;;;;;;;2.67;1.35;;;23.30;63.20;;;;;;4943315;28;97478;-56
2021/12/25 14:37:02;;;;;;;2.78;1.50;;;23.30;63.30;;;;;;4942770;28;96126;-56
2021/12/25 14:39:36;;;;;;;3.65;1.83;;;23.30;63.30;;;;;;4942985;28;98358;-55
2021/12/25 14:42:10;;;;;;;4.57;1.60;;;23.30;63.30;;;;;;4942717;28;96077;-60
2021/12/25 14:44:43;;;;;;;9.93;2.92;;;23.40;63.40;;;;;;4941635;28;96484;-58
2021/12/25 14:47:20;;;;;;;10.55;3.05;;;23.20;60.30;;;;;;4928516;28;96063;-55
2021/12/25 14:49:53;;;;;;;9.18;3.40;;;22.90;60.10;;;;;;4940642;28;95792;-54
2021/12/25 14:52:26;;;;;;;8.45;3.08;;;22.60;60.20;;;;;;4942525;28;95662;-54
2021/12/25 14:54:59;;;;;;;10.63;3.70;;;22.50;60.60;;;;;;4941110;28;96033;-57
2021/12/25 14:57:34;;;;;;;11.68;3.47;;;22.30;60.70;;;;;;4942177;28;95427;-59
2021/12/25 15:00:24;;;;;;;13.20;3.63;;;22.10;60.80;;;;;;4940736;28;96051;-53
2021/12/25 15:03:12;;;;;;;12.43;3.22;;;22.10;61.10;;;;;;4938178;28;95291;-54
2021/12/25 15:05:52;;;;;;;13.88;4.00;;;22.00;61.10;;;;;;4944535;28;96497;-60